sensor_id;sensor_type;location;lat;lon;timestamp;temperature;humidity
59311;DHT22;45078;51.654;21.250;2023-04-03T00:00:29;2.10;99.90
59311;DHT22;45078;51.654;21.250;2023-04-03T00:02:55;2.10;99.90
59311;DHT22;45078;51.654;21.250;2023-04-03T00:05:21;2.00;99.90
59311;DHT22;45078;51.654;21.250;2023-04-03T00:07:47;2.00;99.90
59311;DHT22;45078;51.654;21.250;2023-04-03T00:10:13;2.00;99.90
59311;DHT22;45078;51.654;21.250;2023-04-03T00:12:40;2.00;99.90
59311;DHT22;45078;51.654;21.250;2023-04-03T00:15:06;1.90;99.90
59311;DHT22;45078;51.654;21.250;2023-04-03T00:17:32;1.90;99.90
59311;DHT22;45078;51.654;21.250;2023-04-03T00:19:58;1.90;99.90
59311;DHT22;45078;51.654;21.250;2023-04-03T00:22:24;1.80;99.90
59311;DHT22;45078;51.654;21.250;2023-04-03T00:24:52;1.80;99.90
59311;DHT22;45078;51.654;21.250;2023-04-03T00:27:17;1.70;99.90
59311;DHT22;45078;51.654;21.250;2023-04-03T00:29:43;1.80;99.90
59311;DHT22;45078;51.654;21.250;2023-04-03T00:32:09;1.70;99.90
59311;DHT22;45078;51.654;21.250;2023-04-03T00:34:35;1.70;99.90
59311;DHT22;45078;51.654;21.250;2023-04-03T00:37:01;1.70;99.90
59311;DHT22;45078;51.654;21.250;2023-04-03T00:39:27;1.70;99.90
59311;DHT22;45078;51.654;21.250;2023-04-03T00:41:53;1.70;99.90
59311;DHT22;45078;51.654;21.250;2023-04-03T00:49:43;1.70;99.90
59311;DHT22;45078;51.654;21.250;2023-04-03T00:52:15;1.70;99.90
59311;DHT22;45078;51.654;21.250;2023-04-03T00:54:42;1.70;99.90
59311;DHT22;45078;51.654;21.250;2023-04-03T00:57:10;1.70;99.90
59311;DHT22;45078;51.654;21.250;2023-04-03T00:59:41;1.70;99.90
59311;DHT22;45078;51.654;21.250;2023-04-03T01:02:09;1.70;99.90
59311;DHT22;45078;51.654;21.250;2023-04-03T01:04:40;1.70;99.90
59311;DHT22;45078;51.654;21.250;2023-04-03T01:07:12;1.80;99.90
59311;DHT22;45078;51.654;21.250;2023-04-03T01:09:41;1.80;99.90
59311;DHT22;45078;51.654;21.250;2023-04-03T01:12:39;1.70;99.90
59311;DHT22;45078;51.654;21.250;2023-04-03T01:17:52;1.80;99.90
59311;DHT22;45078;51.654;21.250;2023-04-03T01:25:58;1.80;99.90
59311;DHT22;45078;51.654;21.250;2023-04-03T01:28:33;1.80;99.90
59311;DHT22;45078;51.654;21.250;2023-04-03T01:33:46;1.70;99.90
59311;DHT22;45078;51.654;21.250;2023-04-03T01:36:18;1.70;99.90
59311;DHT22;45078;51.654;21.250;2023-04-03T01:38:45;1.70;99.90
59311;DHT22;45078;51.654;21.250;2023-04-03T01:41:11;1.70;99.90
59311;DHT22;45078;51.654;21.250;2023-04-03T01:43:37;1.70;99.90
59311;DHT22;45078;51.654;21.250;2023-04-03T01:46:02;1.70;99.90
59311;DHT22;45078;51.654;21.250;2023-04-03T01:48:28;1.60;99.90
59311;DHT22;45078;51.654;21.250;2023-04-03T01:50:54;1.60;99.90
59311;DHT22;45078;51.654;21.250;2023-04-03T01:53:21;1.50;99.90
59311;DHT22;45078;51.654;21.250;2023-04-03T01:55:47;1.50;99.90
59311;DHT22;45078;51.654;21.250;2023-04-03T01:58:13;1.50;99.90
59311;DHT22;45078;51.654;21.250;2023-04-03T02:00:39;1.50;99.90
59311;DHT22;45078;51.654;21.250;2023-04-03T02:03:05;1.40;99.90
59311;DHT22;45078;51.654;21.250;2023-04-03T02:05:32;1.50;99.90
59311;DHT22;45078;51.654;21.250;2023-04-03T02:07:58;1.40;99.90
59311;DHT22;45078;51.654;21.250;2023-04-03T02:10:24;1.40;99.90
59311;DHT22;45078;51.654;21.250;2023-04-03T02:12:50;1.40;99.90
59311;DHT22;45078;51.654;21.250;2023-04-03T02:15:16;1.30;99.90
59311;DHT22;45078;51.654;21.250;2023-04-03T02:17:42;1.30;99.90
59311;DHT22;45078;51.654;21.250;2023-04-03T02:20:08;1.30;99.90
59311;DHT22;45078;51.654;21.250;2023-04-03T02:22:34;1.30;99.90
59311;DHT22;45078;51.654;21.250;2023-04-03T02:25:00;1.20;99.90
59311;DHT22;45078;51.654;21.250;2023-04-03T02:27:26;1.20;99.90
59311;DHT22;45078;51.654;21.250;2023-04-03T02:29:52;1.20;99.90
59311;DHT22;45078;51.654;21.250;2023-04-03T02:32:18;1.10;99.90
59311;DHT22;45078;51.654;21.250;2023-04-03T02:34:44;1.10;99.90
59311;DHT22;45078;51.654;21.250;2023-04-03T02:37:10;1.10;99.90
59311;DHT22;45078;51.654;21.250;2023-04-03T02:39:35;1.10;99.90
59311;DHT22;45078;51.654;21.250;2023-04-03T02:42:01;1.00;99.90
59311;DHT22;45078;51.654;21.250;2023-04-03T02:44:27;1.00;99.90
59311;DHT22;45078;51.654;21.250;2023-04-03T02:46:53;1.00;99.90
59311;DHT22;45078;51.654;21.250;2023-04-03T02:49:19;1.00;99.90
59311;DHT22;45078;51.654;21.250;2023-04-03T02:51:45;0.90;99.90
59311;DHT22;45078;51.654;21.250;2023-04-03T02:54:11;0.90;99.90
59311;DHT22;45078;51.654;21.250;2023-04-03T02:56:37;0.90;99.90
59311;DHT22;45078;51.654;21.250;2023-04-03T02:59:03;0.90;99.90
59311;DHT22;45078;51.654;21.250;2023-04-03T03:01:29;0.90;99.90
59311;DHT22;45078;51.654;21.250;2023-04-03T03:03:57;0.90;99.90
59311;DHT22;45078;51.654;21.250;2023-04-03T03:06:24;0.80;99.90
59311;DHT22;45078;51.654;21.250;2023-04-03T03:08:50;0.80;99.90
59311;DHT22;45078;51.654;21.250;2023-04-03T03:11:16;0.80;99.90
59311;DHT22;45078;51.654;21.250;2023-04-03T03:13:42;0.80;99.90
59311;DHT22;45078;51.654;21.250;2023-04-03T03:16:08;0.80;99.90
59311;DHT22;45078;51.654;21.250;2023-04-03T03:18:34;0.70;99.90
59311;DHT22;45078;51.654;21.250;2023-04-03T03:21:01;0.70;99.90
59311;DHT22;45078;51.654;21.250;2023-04-03T03:23:28;0.70;99.90
59311;DHT22;45078;51.654;21.250;2023-04-03T03:26:00;0.70;99.90
59311;DHT22;45078;51.654;21.250;2023-04-03T03:28:27;0.70;99.90
59311;DHT22;45078;51.654;21.250;2023-04-03T03:30:53;0.60;99.90
59311;DHT22;45078;51.654;21.250;2023-04-03T03:33:19;0.60;99.90
59311;DHT22;45078;51.654;21.250;2023-04-03T03:35:45;0.50;99.90
59311;DHT22;45078;51.654;21.250;2023-04-03T03:38:11;0.50;99.90
59311;DHT22;45078;51.654;21.250;2023-04-03T03:40:37;0.50;99.90
59311;DHT22;45078;51.654;21.250;2023-04-03T03:43:03;0.50;99.90
59311;DHT22;45078;51.654;21.250;2023-04-03T03:45:29;0.40;99.90
59311;DHT22;45078;51.654;21.250;2023-04-03T03:47:54;0.40;99.90
59311;DHT22;45078;51.654;21.250;2023-04-03T03:50:20;0.40;99.90
59311;DHT22;45078;51.654;21.250;2023-04-03T03:52:46;0.40;99.90
59311;DHT22;45078;51.654;21.250;2023-04-03T03:55:12;0.40;99.90
59311;DHT22;45078;51.654;21.250;2023-04-03T03:57:38;0.40;99.90
59311;DHT22;45078;51.654;21.250;2023-04-03T04:00:04;0.30;99.90
59311;DHT22;45078;51.654;21.250;2023-04-03T04:02:30;0.30;99.90
59311;DHT22;45078;51.654;21.250;2023-04-03T04:04:56;0.30;99.90
59311;DHT22;45078;51.654;21.250;2023-04-03T04:07:22;0.20;99.90
59311;DHT22;45078;51.654;21.250;2023-04-03T04:09:48;0.30;99.90
59311;DHT22;45078;51.654;21.250;2023-04-03T04:12:14;0.20;99.90
59311;DHT22;45078;51.654;21.250;2023-04-03T04:14:39;0.20;99.90
59311;DHT22;45078;51.654;21.250;2023-04-03T04:17:05;0.20;99.90
59311;DHT22;45078;51.654;21.250;2023-04-03T04:19:31;0.20;99.90
59311;DHT22;45078;51.654;21.250;2023-04-03T04:21:58;0.20;99.90
59311;DHT22;45078;51.654;21.250;2023-04-03T04:24:24;0.20;99.90
59311;DHT22;45078;51.654;21.250;2023-04-03T04:26:50;0.20;99.90
59311;DHT22;45078;51.654;21.250;2023-04-03T04:29:16;0.10;99.90
59311;DHT22;45078;51.654;21.250;2023-04-03T04:31:42;0.20;99.90
59311;DHT22;45078;51.654;21.250;2023-04-03T04:34:08;0.10;99.90
59311;DHT22;45078;51.654;21.250;2023-04-03T04:36:33;0.20;99.90
59311;DHT22;45078;51.654;21.250;2023-04-03T04:38:59;0.10;99.90
59311;DHT22;45078;51.654;21.250;2023-04-03T04:41:25;0.10;99.90
59311;DHT22;45078;51.654;21.250;2023-04-03T04:43:52;0.20;99.90
59311;DHT22;45078;51.654;21.250;2023-04-03T04:46:18;0.10;99.90
59311;DHT22;45078;51.654;21.250;2023-04-03T04:48:44;0.20;99.90
59311;DHT22;45078;51.654;21.250;2023-04-03T04:51:10;0.10;99.90
59311;DHT22;45078;51.654;21.250;2023-04-03T04:53:36;0.10;99.90
59311;DHT22;45078;51.654;21.250;2023-04-03T04:56:02;0.10;99.90
59311;DHT22;45078;51.654;21.250;2023-04-03T04:58:28;0.10;99.90
59311;DHT22;45078;51.654;21.250;2023-04-03T05:01:08;0.10;99.90
59311;DHT22;45078;51.654;21.250;2023-04-03T05:03:34;0.10;99.90
59311;DHT22;45078;51.654;21.250;2023-04-03T05:06:00;0.10;99.90
59311;DHT22;45078;51.654;21.250;2023-04-03T05:08:26;0.10;99.90
59311;DHT22;45078;51.654;21.250;2023-04-03T05:10:52;0.00;99.90
59311;DHT22;45078;51.654;21.250;2023-04-03T05:13:19;0.10;99.90
59311;DHT22;45078;51.654;21.250;2023-04-03T05:15:45;0.10;99.90
59311;DHT22;45078;51.654;21.250;2023-04-03T05:18:11;0.10;99.90
59311;DHT22;45078;51.654;21.250;2023-04-03T05:20:37;0.10;99.90
59311;DHT22;45078;51.654;21.250;2023-04-03T05:23:03;0.20;99.90
59311;DHT22;45078;51.654;21.250;2023-04-03T05:25:29;0.40;99.90
59311;DHT22;45078;51.654;21.250;2023-04-03T05:27:55;0.60;99.90
59311;DHT22;45078;51.654;21.250;2023-04-03T05:30:21;0.80;99.90
59311;DHT22;45078;51.654;21.250;2023-04-03T05:32:47;0.90;99.90
59311;DHT22;45078;51.654;21.250;2023-04-03T05:35:13;1.00;99.90
59311;DHT22;45078;51.654;21.250;2023-04-03T05:37:39;1.00;99.90
59311;DHT22;45078;51.654;21.250;2023-04-03T05:40:06;1.00;99.90
59311;DHT22;45078;51.654;21.250;2023-04-03T05:42:32;1.20;99.90
59311;DHT22;45078;51.654;21.250;2023-04-03T05:44:58;1.40;99.90
59311;DHT22;45078;51.654;21.250;2023-04-03T05:47:24;1.50;99.90
59311;DHT22;45078;51.654;21.250;2023-04-03T05:49:50;1.50;99.90
59311;DHT22;45078;51.654;21.250;2023-04-03T05:52:30;1.80;99.90
59311;DHT22;45078;51.654;21.250;2023-04-03T05:54:56;2.00;99.90
59311;DHT22;45078;51.654;21.250;2023-04-03T05:57:22;2.10;99.90
59311;DHT22;45078;51.654;21.250;2023-04-03T05:59:48;2.30;99.90
59311;DHT22;45078;51.654;21.250;2023-04-03T06:02:18;2.20;99.90
59311;DHT22;45078;51.654;21.250;2023-04-03T06:04:44;2.10;99.90
59311;DHT22;45078;51.654;21.250;2023-04-03T06:07:13;2.00;99.90
59311;DHT22;45078;51.654;21.250;2023-04-03T06:09:39;1.80;99.90
59311;DHT22;45078;51.654;21.250;2023-04-03T06:12:05;1.50;99.90
59311;DHT22;45078;51.654;21.250;2023-04-03T06:14:31;1.30;99.90
59311;DHT22;45078;51.654;21.250;2023-04-03T06:16:57;1.30;99.90
59311;DHT22;45078;51.654;21.250;2023-04-03T06:19:23;1.30;99.90
59311;DHT22;45078;51.654;21.250;2023-04-03T06:21:48;1.30;99.90
59311;DHT22;45078;51.654;21.250;2023-04-03T06:24:16;1.50;99.90
59311;DHT22;45078;51.654;21.250;2023-04-03T06:26:42;1.90;99.90
59311;DHT22;45078;51.654;21.250;2023-04-03T06:29:08;2.10;99.90
59311;DHT22;45078;51.654;21.250;2023-04-03T06:31:34;2.30;99.90
59311;DHT22;45078;51.654;21.250;2023-04-03T06:34:02;2.60;99.90
59311;DHT22;45078;51.654;21.250;2023-04-03T06:36:28;2.80;99.90
59311;DHT22;45078;51.654;21.250;2023-04-03T06:38:54;2.80;99.90
59311;DHT22;45078;51.654;21.250;2023-04-03T06:41:20;2.40;99.90
59311;DHT22;45078;51.654;21.250;2023-04-03T06:43:46;2.40;99.90
59311;DHT22;45078;51.654;21.250;2023-04-03T06:46:18;2.50;99.90
59311;DHT22;45078;51.654;21.250;2023-04-03T06:48:44;2.50;99.90
59311;DHT22;45078;51.654;21.250;2023-04-03T06:51:29;2.70;99.90
59311;DHT22;45078;51.654;21.250;2023-04-03T06:53:57;2.80;99.90
59311;DHT22;45078;51.654;21.250;2023-04-03T06:56:24;2.70;99.90
59311;DHT22;45078;51.654;21.250;2023-04-03T06:58:52;2.70;99.90
59311;DHT22;45078;51.654;21.250;2023-04-03T07:01:20;2.60;99.90
59311;DHT22;45078;51.654;21.250;2023-04-03T07:03:47;2.50;99.90
59311;DHT22;45078;51.654;21.250;2023-04-03T07:06:14;2.40;99.90
59311;DHT22;45078;51.654;21.250;2023-04-03T07:08:41;2.40;99.90
59311;DHT22;45078;51.654;21.250;2023-04-03T07:11:08;2.40;99.90
59311;DHT22;45078;51.654;21.250;2023-04-03T07:13:35;2.40;99.90
59311;DHT22;45078;51.654;21.250;2023-04-03T07:16:02;2.50;99.90
59311;DHT22;45078;51.654;21.250;2023-04-03T07:18:29;2.70;99.90
59311;DHT22;45078;51.654;21.250;2023-04-03T07:20:55;2.90;99.90
59311;DHT22;45078;51.654;21.250;2023-04-03T07:23:21;2.90;99.90
59311;DHT22;45078;51.654;21.250;2023-04-03T07:25:48;2.80;99.90
59311;DHT22;45078;51.654;21.250;2023-04-03T07:28:14;3.10;99.90
59311;DHT22;45078;51.654;21.250;2023-04-03T07:30:44;3.20;99.90
59311;DHT22;45078;51.654;21.250;2023-04-03T07:33:12;3.30;99.90
59311;DHT22;45078;51.654;21.250;2023-04-03T07:35:39;3.20;99.90
59311;DHT22;45078;51.654;21.250;2023-04-03T07:38:05;3.30;99.90
59311;DHT22;45078;51.654;21.250;2023-04-03T07:40:32;3.50;99.90
59311;DHT22;45078;51.654;21.250;2023-04-03T07:42:58;3.20;99.90
59311;DHT22;45078;51.654;21.250;2023-04-03T07:45:24;3.10;99.90
59311;DHT22;45078;51.654;21.250;2023-04-03T07:47:50;3.20;99.90
59311;DHT22;45078;51.654;21.250;2023-04-03T07:50:16;3.30;99.90
59311;DHT22;45078;51.654;21.250;2023-04-03T07:52:42;3.60;99.90
59311;DHT22;45078;51.654;21.250;2023-04-03T07:55:08;3.60;99.90
59311;DHT22;45078;51.654;21.250;2023-04-03T07:57:34;3.80;99.90
59311;DHT22;45078;51.654;21.250;2023-04-03T08:00:00;4.00;99.90
59311;DHT22;45078;51.654;21.250;2023-04-03T08:02:26;3.90;99.90
59311;DHT22;45078;51.654;21.250;2023-04-03T08:04:52;3.80;99.90
59311;DHT22;45078;51.654;21.250;2023-04-03T08:07:18;3.80;99.90
59311;DHT22;45078;51.654;21.250;2023-04-03T08:09:44;4.00;99.90
59311;DHT22;45078;51.654;21.250;2023-04-03T08:12:10;4.10;99.90
59311;DHT22;45078;51.654;21.250;2023-04-03T08:14:37;4.50;99.90
59311;DHT22;45078;51.654;21.250;2023-04-03T08:17:03;4.60;99.90
59311;DHT22;45078;51.654;21.250;2023-04-03T08:19:31;4.50;99.90
59311;DHT22;45078;51.654;21.250;2023-04-03T08:21:57;4.60;97.80
59311;DHT22;45078;51.654;21.250;2023-04-03T08:24:24;4.70;94.30
59311;DHT22;45078;51.654;21.250;2023-04-03T08:26:50;4.50;94.20
59311;DHT22;45078;51.654;21.250;2023-04-03T08:29:16;4.60;94.80
59311;DHT22;45078;51.654;21.250;2023-04-03T08:31:42;4.40;93.80
59311;DHT22;45078;51.654;21.250;2023-04-03T08:34:08;4.30;92.70
59311;DHT22;45078;51.654;21.250;2023-04-03T08:36:34;4.40;93.20
59311;DHT22;45078;51.654;21.250;2023-04-03T08:39:00;4.50;92.40
59311;DHT22;45078;51.654;21.250;2023-04-03T08:50:07;5.10;90.20
59311;DHT22;45078;51.654;21.250;2023-04-03T08:52:45;4.90;89.50
59311;DHT22;45078;51.654;21.250;2023-04-03T08:58:09;4.70;87.60
59311;DHT22;45078;51.654;21.250;2023-04-03T09:01:01;4.60;90.60
59311;DHT22;45078;51.654;21.250;2023-04-03T09:03:31;4.50;88.40
59311;DHT22;45078;51.654;21.250;2023-04-03T09:06:15;4.30;88.00
59311;DHT22;45078;51.654;21.250;2023-04-03T09:11:27;4.30;90.50
59311;DHT22;45078;51.654;21.250;2023-04-03T09:22:27;4.30;88.50
59311;DHT22;45078;51.654;21.250;2023-04-03T09:28:00;4.60;85.30
59311;DHT22;45078;51.654;21.250;2023-04-03T09:30:27;4.50;86.20
59311;DHT22;45078;51.654;21.250;2023-04-03T09:32:55;4.50;84.30
59311;DHT22;45078;51.654;21.250;2023-04-03T09:35:30;4.60;83.10
59311;DHT22;45078;51.654;21.250;2023-04-03T09:38:22;4.80;82.00
59311;DHT22;45078;51.654;21.250;2023-04-03T09:40:48;4.60;82.90
59311;DHT22;45078;51.654;21.250;2023-04-03T09:43:22;4.60;84.00
59311;DHT22;45078;51.654;21.250;2023-04-03T09:45:49;4.40;82.80
59311;DHT22;45078;51.654;21.250;2023-04-03T09:48:24;4.50;84.10
59311;DHT22;45078;51.654;21.250;2023-04-03T09:53:38;4.60;81.90
59311;DHT22;45078;51.654;21.250;2023-04-03T09:56:20;4.90;78.70
59311;DHT22;45078;51.654;21.250;2023-04-03T09:58:51;4.90;79.10
59311;DHT22;45078;51.654;21.250;2023-04-03T10:01:36;4.90;79.00
59311;DHT22;45078;51.654;21.250;2023-04-03T10:06:42;4.80;80.00
59311;DHT22;45078;51.654;21.250;2023-04-03T10:09:21;5.10;83.30
59311;DHT22;45078;51.654;21.250;2023-04-03T10:14:32;5.50;79.90
59311;DHT22;45078;51.654;21.250;2023-04-03T10:25:09;5.10;75.90
59311;DHT22;45078;51.654;21.250;2023-04-03T10:27:49;5.20;76.70
59311;DHT22;45078;51.654;21.250;2023-04-03T10:30:32;5.50;77.60
59311;DHT22;45078;51.654;21.250;2023-04-03T10:41:40;6.30;72.90
59311;DHT22;45078;51.654;21.250;2023-04-03T10:44:42;6.60;78.00
59311;DHT22;45078;51.654;21.250;2023-04-03T10:47:23;6.60;73.90
59311;DHT22;45078;51.654;21.250;2023-04-03T10:52:43;6.80;70.20
59311;DHT22;45078;51.654;21.250;2023-04-03T10:57:47;5.90;70.60
59311;DHT22;45078;51.654;21.250;2023-04-03T11:00:21;5.90;71.20
59311;DHT22;45078;51.654;21.250;2023-04-03T11:02:56;5.90;72.30
59311;DHT22;45078;51.654;21.250;2023-04-03T11:05:43;5.80;73.60
59311;DHT22;45078;51.654;21.250;2023-04-03T11:11:21;6.30;72.60
59311;DHT22;45078;51.654;21.250;2023-04-03T11:16:33;6.50;72.20
59311;DHT22;45078;51.654;21.250;2023-04-03T11:19:21;6.70;72.00
59311;DHT22;45078;51.654;21.250;2023-04-03T11:22:06;6.60;71.50
59311;DHT22;45078;51.654;21.250;2023-04-03T11:24:36;5.70;71.90
59311;DHT22;45078;51.654;21.250;2023-04-03T11:27:05;5.70;76.80
59311;DHT22;45078;51.654;21.250;2023-04-03T11:29:36;6.20;78.40
59311;DHT22;45078;51.654;21.250;2023-04-03T11:34:52;7.00;73.30
59311;DHT22;45078;51.654;21.250;2023-04-03T11:37:36;7.20;71.60
59311;DHT22;45078;51.654;21.250;2023-04-03T11:40:05;7.20;71.00
59311;DHT22;45078;51.654;21.250;2023-04-03T11:42:39;7.00;70.60
59311;DHT22;45078;51.654;21.250;2023-04-03T11:48:02;6.00;72.60
59311;DHT22;45078;51.654;21.250;2023-04-03T11:53:01;6.60;69.70
59311;DHT22;45078;51.654;21.250;2023-04-03T11:55:43;6.70;71.00
59311;DHT22;45078;51.654;21.250;2023-04-03T11:58:22;6.50;73.00
59311;DHT22;45078;51.654;21.250;2023-04-03T12:00:50;6.40;74.50
59311;DHT22;45078;51.654;21.250;2023-04-03T12:24:03;6.30;74.70
59311;DHT22;45078;51.654;21.250;2023-04-03T12:27:01;6.30;73.70
59311;DHT22;45078;51.654;21.250;2023-04-03T12:29:34;6.30;72.30
59311;DHT22;45078;51.654;21.250;2023-04-03T12:32:13;6.40;71.20
59311;DHT22;45078;51.654;21.250;2023-04-03T12:40:46;6.90;71.70
59311;DHT22;45078;51.654;21.250;2023-04-03T12:48:59;6.50;70.70
59311;DHT22;45078;51.654;21.250;2023-04-03T12:51:37;6.70;70.30
59311;DHT22;45078;51.654;21.250;2023-04-03T12:54:26;7.00;71.00
59311;DHT22;45078;51.654;21.250;2023-04-03T12:57:18;7.30;71.40
59311;DHT22;45078;51.654;21.250;2023-04-03T12:59:45;7.50;67.90
59311;DHT22;45078;51.654;21.250;2023-04-03T13:02:31;7.20;67.60
59311;DHT22;45078;51.654;21.250;2023-04-03T13:05:06;6.90;69.60
59311;DHT22;45078;51.654;21.250;2023-04-03T13:07:34;6.80;69.60
59311;DHT22;45078;51.654;21.250;2023-04-03T13:12:44;7.00;70.30
59311;DHT22;45078;51.654;21.250;2023-04-03T13:15:30;6.80;69.00
59311;DHT22;45078;51.654;21.250;2023-04-03T13:17:56;6.70;68.20
59311;DHT22;45078;51.654;21.250;2023-04-03T13:20:34;6.50;70.20
59311;DHT22;45078;51.654;21.250;2023-04-03T13:23:08;7.10;70.40
59311;DHT22;45078;51.654;21.250;2023-04-03T13:25:41;7.40;70.90
59311;DHT22;45078;51.654;21.250;2023-04-03T13:28:21;7.30;68.60
59311;DHT22;45078;51.654;21.250;2023-04-03T13:37:05;6.40;69.90
59311;DHT22;45078;51.654;21.250;2023-04-03T13:39:36;5.80;70.70
59311;DHT22;45078;51.654;21.250;2023-04-03T13:42:21;5.70;72.10
59311;DHT22;45078;51.654;21.250;2023-04-03T13:44:48;5.70;71.70
59311;DHT22;45078;51.654;21.250;2023-04-03T13:47:20;6.10;71.20
59311;DHT22;45078;51.654;21.250;2023-04-03T13:55:25;6.80;68.00
59311;DHT22;45078;51.654;21.250;2023-04-03T13:58:00;6.50;67.50
59311;DHT22;45078;51.654;21.250;2023-04-03T14:03:00;6.10;71.40
59311;DHT22;45078;51.654;21.250;2023-04-03T14:05:26;6.10;70.90
59311;DHT22;45078;51.654;21.250;2023-04-03T14:07:53;6.10;70.50
59311;DHT22;45078;51.654;21.250;2023-04-03T14:10:20;5.90;71.70
59311;DHT22;45078;51.654;21.250;2023-04-03T14:12:46;5.80;73.30
59311;DHT22;45078;51.654;21.250;2023-04-03T14:15:24;6.10;72.20
59311;DHT22;45078;51.654;21.250;2023-04-03T14:17:51;6.90;70.70
59311;DHT22;45078;51.654;21.250;2023-04-03T14:20:20;7.20;68.30
59311;DHT22;45078;51.654;21.250;2023-04-03T14:22:47;7.00;68.70
59311;DHT22;45078;51.654;21.250;2023-04-03T14:25:15;7.30;69.80
59311;DHT22;45078;51.654;21.250;2023-04-03T14:27:43;7.70;66.80
59311;DHT22;45078;51.654;21.250;2023-04-03T14:32:46;7.70;65.20
59311;DHT22;45078;51.654;21.250;2023-04-03T14:35:13;7.10;64.70
59311;DHT22;45078;51.654;21.250;2023-04-03T14:37:40;7.00;66.70
59311;DHT22;45078;51.654;21.250;2023-04-03T14:40:07;7.50;68.30
59311;DHT22;45078;51.654;21.250;2023-04-03T14:42:36;8.00;66.20
59311;DHT22;45078;51.654;21.250;2023-04-03T14:45:06;8.20;64.20
59311;DHT22;45078;51.654;21.250;2023-04-03T14:47:33;8.80;64.50
59311;DHT22;45078;51.654;21.250;2023-04-03T14:50:06;9.00;63.10
59311;DHT22;45078;51.654;21.250;2023-04-03T14:52:35;8.70;61.00
59311;DHT22;45078;51.654;21.250;2023-04-03T14:55:04;8.40;62.00
59311;DHT22;45078;51.654;21.250;2023-04-03T14:57:31;7.70;63.00
59311;DHT22;45078;51.654;21.250;2023-04-03T14:59:57;7.30;64.90
59311;DHT22;45078;51.654;21.250;2023-04-03T15:02:37;6.80;67.10
59311;DHT22;45078;51.654;21.250;2023-04-03T15:05:05;6.40;67.50
59311;DHT22;45078;51.654;21.250;2023-04-03T15:07:45;6.30;67.60
59311;DHT22;45078;51.654;21.250;2023-04-03T15:10:19;6.10;67.40
59311;DHT22;45078;51.654;21.250;2023-04-03T15:12:47;5.90;66.70
59311;DHT22;45078;51.654;21.250;2023-04-03T15:15:14;6.30;68.30
59311;DHT22;45078;51.654;21.250;2023-04-03T15:17:41;7.00;67.00
59311;DHT22;45078;51.654;21.250;2023-04-03T15:20:19;7.30;67.00
59311;DHT22;45078;51.654;21.250;2023-04-03T15:22:45;7.00;66.30
59311;DHT22;45078;51.654;21.250;2023-04-03T15:25:12;7.00;67.30
59311;DHT22;45078;51.654;21.250;2023-04-03T15:27:38;6.50;67.70
59311;DHT22;45078;51.654;21.250;2023-04-03T15:30:11;6.30;70.40
59311;DHT22;45078;51.654;21.250;2023-04-03T15:32:38;6.20;68.80
59311;DHT22;45078;51.654;21.250;2023-04-03T15:35:04;6.70;67.70
59311;DHT22;45078;51.654;21.250;2023-04-03T15:37:30;7.00;66.40
59311;DHT22;45078;51.654;21.250;2023-04-03T15:39:56;7.00;65.60
59311;DHT22;45078;51.654;21.250;2023-04-03T15:42:22;6.60;65.40
59311;DHT22;45078;51.654;21.250;2023-04-03T15:44:48;6.30;67.30
59311;DHT22;45078;51.654;21.250;2023-04-03T15:47:14;6.10;67.90
59311;DHT22;45078;51.654;21.250;2023-04-03T15:49:40;6.00;68.70
59311;DHT22;45078;51.654;21.250;2023-04-03T15:52:06;5.90;69.00
59311;DHT22;45078;51.654;21.250;2023-04-03T15:54:32;5.90;68.90
59311;DHT22;45078;51.654;21.250;2023-04-03T15:56:57;6.00;69.30
59311;DHT22;45078;51.654;21.250;2023-04-03T15:59:23;6.70;68.60
59311;DHT22;45078;51.654;21.250;2023-04-03T16:01:50;7.40;65.60
59311;DHT22;45078;51.654;21.250;2023-04-03T16:04:17;7.50;64.00
59311;DHT22;45078;51.654;21.250;2023-04-03T16:06:43;7.40;65.70
59311;DHT22;45078;51.654;21.250;2023-04-03T16:09:09;6.90;64.70
59311;DHT22;45078;51.654;21.250;2023-04-03T16:11:36;6.60;65.70
59311;DHT22;45078;51.654;21.250;2023-04-03T16:14:05;6.00;68.10
59311;DHT22;45078;51.654;21.250;2023-04-03T16:16:32;5.70;68.20
59311;DHT22;45078;51.654;21.250;2023-04-03T16:18:58;5.70;69.30
59311;DHT22;45078;51.654;21.250;2023-04-03T16:21:24;5.50;69.70
59311;DHT22;45078;51.654;21.250;2023-04-03T16:23:50;5.30;70.50
59311;DHT22;45078;51.654;21.250;2023-04-03T16:26:16;5.30;71.00
59311;DHT22;45078;51.654;21.250;2023-04-03T16:28:43;5.30;71.10
59311;DHT22;45078;51.654;21.250;2023-04-03T16:31:09;5.20;72.10
59311;DHT22;45078;51.654;21.250;2023-04-03T16:33:35;5.10;72.40
59311;DHT22;45078;51.654;21.250;2023-04-03T16:36:03;5.00;73.40
59311;DHT22;45078;51.654;21.250;2023-04-03T16:38:30;4.90;73.80
59311;DHT22;45078;51.654;21.250;2023-04-03T16:40:56;4.80;75.20
59311;DHT22;45078;51.654;21.250;2023-04-03T16:43:33;4.70;74.30
59311;DHT22;45078;51.654;21.250;2023-04-03T16:45:59;4.60;74.80
59311;DHT22;45078;51.654;21.250;2023-04-03T16:48:28;4.60;75.30
59311;DHT22;45078;51.654;21.250;2023-04-03T16:50:54;4.60;75.50
59311;DHT22;45078;51.654;21.250;2023-04-03T16:53:24;4.50;75.80
59311;DHT22;45078;51.654;21.250;2023-04-03T16:55:51;4.50;75.60
59311;DHT22;45078;51.654;21.250;2023-04-03T16:58:17;4.50;75.80
59311;DHT22;45078;51.654;21.250;2023-04-03T17:00:43;4.40;76.50
59311;DHT22;45078;51.654;21.250;2023-04-03T17:03:09;4.40;76.30
59311;DHT22;45078;51.654;21.250;2023-04-03T17:05:35;4.30;76.10
59311;DHT22;45078;51.654;21.250;2023-04-03T17:08:00;4.30;76.50
59311;DHT22;45078;51.654;21.250;2023-04-03T17:10:27;4.30;77.40
59311;DHT22;45078;51.654;21.250;2023-04-03T17:12:53;4.20;78.60
59311;DHT22;45078;51.654;21.250;2023-04-03T17:15:19;4.20;78.70
59311;DHT22;45078;51.654;21.250;2023-04-03T17:17:46;4.20;78.90
59311;DHT22;45078;51.654;21.250;2023-04-03T17:20:13;4.10;79.20
59311;DHT22;45078;51.654;21.250;2023-04-03T17:22:39;4.10;79.80
59311;DHT22;45078;51.654;21.250;2023-04-03T17:25:05;4.10;79.50
59311;DHT22;45078;51.654;21.250;2023-04-03T17:27:31;4.00;80.30
59311;DHT22;45078;51.654;21.250;2023-04-03T17:29:57;4.00;80.20
59311;DHT22;45078;51.654;21.250;2023-04-03T17:32:24;4.00;80.60
59311;DHT22;45078;51.654;21.250;2023-04-03T17:34:50;4.00;80.90
59311;DHT22;45078;51.654;21.250;2023-04-03T17:37:16;3.90;81.10
59311;DHT22;45078;51.654;21.250;2023-04-03T17:39:42;3.90;82.30
59311;DHT22;45078;51.654;21.250;2023-04-03T17:42:08;3.90;82.30
59311;DHT22;45078;51.654;21.250;2023-04-03T17:44:34;3.80;81.40
59311;DHT22;45078;51.654;21.250;2023-04-03T17:47:00;3.80;82.00
59311;DHT22;45078;51.654;21.250;2023-04-03T17:49:26;3.70;81.70
59311;DHT22;45078;51.654;21.250;2023-04-03T17:51:51;3.70;81.00
59311;DHT22;45078;51.654;21.250;2023-04-03T17:54:18;3.60;82.80
59311;DHT22;45078;51.654;21.250;2023-04-03T17:56:44;3.60;82.40